createdAt,value
2017-05-22T00:00:19.314Z,11.1
2017-05-22T00:01:19.598Z,11.07
2017-05-22T00:02:19.602Z,11.04
2017-05-22T00:03:19.595Z,11.14
2017-05-22T00:04:19.589Z,10.99
2017-05-22T00:05:19.275Z,11
2017-05-22T00:06:19.263Z,10.92
2017-05-22T00:07:19.557Z,10.96
2017-05-22T00:08:19.555Z,10.91
2017-05-22T00:09:19.246Z,10.88
2017-05-22T00:10:19.544Z,10.86
2017-05-22T00:11:19.540Z,10.97
2017-05-22T00:12:19.528Z,10.91
2017-05-22T00:13:19.528Z,10.89
2017-05-22T00:14:19.217Z,10.88
2017-05-22T00:15:19.516Z,10.89
2017-05-22T00:16:19.491Z,10.85
2017-05-22T00:17:19.488Z,10.78
2017-05-22T00:18:19.481Z,10.78
2017-05-22T00:19:19.170Z,10.68
2017-05-22T00:20:19.472Z,10.79
2017-05-22T00:21:19.465Z,10.7
2017-05-22T00:22:19.457Z,10.73
2017-05-22T00:23:19.444Z,10.78
2017-05-22T00:24:19.453Z,10.76
2017-05-22T00:25:19.430Z,10.67
2017-05-22T00:26:19.441Z,10.63
2017-05-22T00:27:19.109Z,10.68
2017-05-22T00:28:19.420Z,10.63
2017-05-22T00:29:19.409Z,10.66
2017-05-22T00:30:19.099Z,10.7
2017-05-22T00:31:19.398Z,10.64
2017-05-22T00:32:19.388Z,10.66
2017-05-22T00:33:19.380Z,10.66
2017-05-22T00:34:19.375Z,10.67
2017-05-22T00:35:19.367Z,10.64
2017-05-22T00:36:19.347Z,10.68
2017-05-22T00:37:19.036Z,10.63
2017-05-22T00:38:19.343Z,10.63
2017-05-22T00:39:19.333Z,10.66
2017-05-22T00:40:19.334Z,10.66
2017-05-22T00:41:19.330Z,10.66
2017-05-22T00:42:19.306Z,10.67
2017-05-22T00:43:19.313Z,10.67
2017-05-22T00:44:19.296Z,10.63
2017-05-22T00:45:19.286Z,10.64
2017-05-22T00:46:19.281Z,10.64
2017-05-22T00:47:19.275Z,10.64
2017-05-22T00:48:19.283Z,10.63
2017-05-22T00:49:19.266Z,10.68
2017-05-22T00:50:19.260Z,10.61
2017-05-22T00:51:19.249Z,10.67
2017-05-22T00:52:19.232Z,10.74
2017-05-22T00:53:19.238Z,10.74
2017-05-22T00:54:19.225Z,10.68
2017-05-22T00:55:19.217Z,10.7
2017-05-22T00:56:19.218Z,10.7
2017-05-22T00:57:19.207Z,10.79
2017-05-22T00:58:19.201Z,10.78
2017-05-22T00:59:19.198Z,10.78
2017-05-22T01:00:18.874Z,10.76
2017-05-22T01:01:19.186Z,10.74
2017-05-22T01:02:19.161Z,10.73
2017-05-22T01:03:19.158Z,10.7
2017-05-22T01:04:19.156Z,10.79
2017-05-22T01:05:19.144Z,10.79
2017-05-22T01:06:19.143Z,10.71
2017-05-22T01:07:19.121Z,10.79
2017-05-22T01:08:19.129Z,10.81
2017-05-22T01:09:19.170Z,10.84
2017-05-22T01:10:19.108Z,10.73
2017-05-22T01:11:19.105Z,10.85
2017-05-22T01:12:19.094Z,10.81
2017-05-22T01:13:19.096Z,10.86
2017-05-22T01:14:19.069Z,10.86
2017-05-22T01:15:19.071Z,10.86
2017-05-22T01:16:19.069Z,10.86
2017-05-22T01:17:19.059Z,10.89
2017-05-22T01:18:19.056Z,10.89
2017-05-22T01:19:19.041Z,10.92
2017-05-22T01:20:19.042Z,10.86
2017-05-22T01:21:19.040Z,10.89
2017-05-22T01:22:19.016Z,10.91
2017-05-22T01:23:19.077Z,10.86
2017-05-22T01:24:19.019Z,10.92
2017-05-22T01:25:19.009Z,10.91
2017-05-22T01:26:18.997Z,10.97
2017-05-22T01:27:18.995Z,10.96
2017-05-22T01:28:18.983Z,10.96
2017-05-22T01:29:19.020Z,11.04
2017-05-22T01:30:18.667Z,10.92
2017-05-22T01:31:18.962Z,10.92
2017-05-22T01:32:18.959Z,11.06
2017-05-22T01:33:18.638Z,11.07
2017-05-22T01:34:18.935Z,11.07
2017-05-22T01:35:18.931Z,11.07
2017-05-22T01:36:18.922Z,11.06
2017-05-22T01:37:18.916Z,11.15
2017-05-22T01:38:18.910Z,11.15
2017-05-22T01:39:18.904Z,11.11
2017-05-22T01:40:18.890Z,11.09
2017-05-22T01:41:18.883Z,11.06
2017-05-22T01:42:18.877Z,11.06
2017-05-22T01:43:18.875Z,11.06
2017-05-22T01:44:18.861Z,11.07
2017-05-22T01:45:18.869Z,11.1
2017-05-22T01:46:18.854Z,11.22
2017-05-22T01:47:18.550Z,11.22
2017-05-22T01:48:18.846Z,11.24
2017-05-22T01:49:18.834Z,11.18
2017-05-22T01:50:19.077Z,11.24
2017-05-22T01:51:18.827Z,11.25
2017-05-22T01:52:18.818Z,11.17
2017-05-22T01:53:18.806Z,11.25
2017-05-22T01:54:18.808Z,11.28
2017-05-22T01:55:18.790Z,11.25
2017-05-22T01:56:18.782Z,11.29
2017-05-22T01:57:18.769Z,11.28
2017-05-22T01:58:18.763Z,11.28
2017-05-22T01:59:18.766Z,11.33
2017-05-22T02:00:18.744Z,11.22
2017-05-22T02:01:18.750Z,11.27
2017-05-22T02:02:18.746Z,11.35
2017-05-22T02:03:18.733Z,11.21
2017-05-22T02:04:18.735Z,11.18
2017-05-22T02:05:18.714Z,11.28
2017-05-22T02:06:18.705Z,11.22
2017-05-22T02:07:18.704Z,11.19
2017-05-22T02:08:18.701Z,11.22
2017-05-22T02:09:18.697Z,11.27
2017-05-22T02:10:18.683Z,11.25
2017-05-22T02:11:18.690Z,11.22
2017-05-22T02:12:18.667Z,11.29
2017-05-22T02:13:18.662Z,11.24
2017-05-22T02:14:18.663Z,11.28
2017-05-22T02:15:18.647Z,11.35
2017-05-22T02:16:18.637Z,11.29
2017-05-22T02:17:18.633Z,11.29
2017-05-22T02:18:18.627Z,11.33
2017-05-22T02:19:18.614Z,11.32
2017-05-22T02:20:18.605Z,11.35
2017-05-22T02:21:18.606Z,11.36
2017-05-22T02:22:18.598Z,11.33
2017-05-22T02:23:18.595Z,11.4
2017-05-22T02:24:18.578Z,11.4
2017-05-22T02:25:18.587Z,11.4
2017-05-22T02:26:18.571Z,11.36
2017-05-22T02:27:18.565Z,11.33
2017-05-22T02:28:18.547Z,11.42
2017-05-22T02:29:18.540Z,11.39
2017-05-22T02:30:18.618Z,11.42
2017-05-22T02:31:18.540Z,11.37
2017-05-22T02:32:18.534Z,11.42
2017-05-22T02:33:18.527Z,11.33
2017-05-22T02:34:18.218Z,11.32
2017-05-22T02:35:18.504Z,11.32
2017-05-22T02:36:18.196Z,11.33
2017-05-22T02:37:18.493Z,11.33
2017-05-22T02:38:18.478Z,11.35
2017-05-22T02:39:17.876Z,11.39
2017-05-22T02:40:18.479Z,11.42
2017-05-22T02:41:18.477Z,11.28
2017-05-22T02:42:18.464Z,11.36
2017-05-22T02:43:18.461Z,11.32
2017-05-22T02:44:18.449Z,11.35
2017-05-22T02:45:18.440Z,11.32
2017-05-22T02:46:18.438Z,11.39
2017-05-22T02:47:18.427Z,11.35
2017-05-22T02:48:18.420Z,11.39
2017-05-22T02:49:18.106Z,11.28
2017-05-22T02:50:18.100Z,11.37
2017-05-22T02:51:18.391Z,11.27
2017-05-22T02:52:18.383Z,11.37
2017-05-22T02:53:18.074Z,11.37
2017-05-22T02:54:18.381Z,11.36
2017-05-22T02:55:18.367Z,11.43
2017-05-22T02:56:18.361Z,11.4
2017-05-22T02:57:18.365Z,11.36
2017-05-22T02:58:18.354Z,11.39
2017-05-22T02:59:18.350Z,11.42
2017-05-22T03:00:18.348Z,11.37
2017-05-22T03:01:18.327Z,11.36
2017-05-22T03:02:18.329Z,11.35
2017-05-22T03:03:18.319Z,11.43
2017-05-22T03:04:18.000Z,11.37
2017-05-22T03:05:18.005Z,11.42
2017-05-22T03:06:18.001Z,11.52
2017-05-22T03:07:18.306Z,11.42
2017-05-22T03:08:18.278Z,11.42
2017-05-22T03:09:18.282Z,11.37
2017-05-22T03:10:18.269Z,11.46
2017-05-22T03:11:18.265Z,11.4
2017-05-22T03:12:18.264Z,11.37
2017-05-22T03:13:18.253Z,11.37
2017-05-22T03:14:18.241Z,11.39
2017-05-22T03:15:18.233Z,11.44
2017-05-22T03:16:18.229Z,11.47
2017-05-22T03:17:18.221Z,11.44
2017-05-22T03:18:18.216Z,11.42
2017-05-22T03:19:18.217Z,11.39
2017-05-22T03:20:18.208Z,11.4
2017-05-22T03:21:17.885Z,11.35
2017-05-22T03:22:18.187Z,11.37
2017-05-22T03:23:17.876Z,11.44
2017-05-22T03:24:18.165Z,11.42
2017-05-22T03:25:17.860Z,11.46
2017-05-22T03:26:18.159Z,11.46
2017-05-22T03:27:18.164Z,11.43
2017-05-22T03:28:18.156Z,11.51
2017-05-22T03:29:18.145Z,11.52
2017-05-22T03:30:18.134Z,11.51
2017-05-22T03:31:18.121Z,11.61
2017-05-22T03:32:17.823Z,11.52
2017-05-22T03:33:18.109Z,11.61
2017-05-22T03:34:17.793Z,11.62
2017-05-22T03:35:18.111Z,11.73
2017-05-22T03:36:18.084Z,11.72
2017-05-22T03:37:17.787Z,11.78
2017-05-22T03:38:18.088Z,11.83
2017-05-22T03:39:18.067Z,11.9
2017-05-22T03:40:18.058Z,12.02
2017-05-22T03:41:18.053Z,12.09
2017-05-22T03:42:17.752Z,12.16
2017-05-22T03:43:18.049Z,12.13
2017-05-22T03:44:17.739Z,12.19
2017-05-22T03:45:17.732Z,12.23
2017-05-22T03:46:18.033Z,12.41
2017-05-22T03:47:17.724Z,12.45
2017-05-22T03:48:17.409Z,12.45
2017-05-22T03:49:17.709Z,12.47
2017-05-22T03:50:18.002Z,12.57
2017-05-22T03:51:17.695Z,12.68
2017-05-22T03:52:17.689Z,12.74
2017-05-22T03:53:17.995Z,12.77
2017-05-22T03:54:17.980Z,13.07
2017-05-22T03:55:17.964Z,13.11
2017-05-22T03:56:17.971Z,13.36
2017-05-22T03:57:17.662Z,13.66
2017-05-22T03:58:17.662Z,13.85
2017-05-22T03:59:17.944Z,14.06
2017-05-22T04:00:17.947Z,14.12
2017-05-22T04:01:17.636Z,14.29
2017-05-22T04:02:17.927Z,14.36
2017-05-22T04:03:17.630Z,14.52
2017-05-22T04:04:17.619Z,14.54
2017-05-22T04:05:17.921Z,14.52
2017-05-22T04:06:17.925Z,14.68
2017-05-22T04:07:17.603Z,14.73
2017-05-22T04:08:17.917Z,14.81
2017-05-22T04:09:17.898Z,14.88
2017-05-22T04:10:17.897Z,14.84
2017-05-22T04:11:17.896Z,14.95
2017-05-22T04:12:17.881Z,14.94
2017-05-22T04:13:17.590Z,15.13
2017-05-22T04:14:17.873Z,15.11
2017-05-22T04:15:17.580Z,15.25
2017-05-22T04:16:17.872Z,15.31
2017-05-22T04:17:17.566Z,15.41
2017-05-22T04:18:17.552Z,15.47
2017-05-22T04:19:17.855Z,15.56
2017-05-22T04:20:17.861Z,15.6
2017-05-22T04:21:17.859Z,15.84
2017-05-22T04:22:17.859Z,15.97
2017-05-22T04:23:17.850Z,16.14
2017-05-22T04:24:17.843Z,16.38
2017-05-22T04:25:17.538Z,16.66
2017-05-22T04:26:17.825Z,16.91
2017-05-22T04:27:17.533Z,17.15
2017-05-22T04:28:17.521Z,17.54
2017-05-22T04:29:17.522Z,17.97
2017-05-22T04:30:17.824Z,18.29
2017-05-22T04:31:17.517Z,18.57
2017-05-22T04:32:17.821Z,19.04
2017-05-22T04:33:17.905Z,19.33
2017-05-22T04:34:17.819Z,19.83
2017-05-22T04:35:17.819Z,20.14
2017-05-22T04:36:17.514Z,20.54
2017-05-22T04:37:17.828Z,20.97
2017-05-22T04:38:17.827Z,21.28
2017-05-22T04:39:17.828Z,21.62
2017-05-22T04:40:17.820Z,21.99
2017-05-22T04:41:17.512Z,22.33
2017-05-22T04:42:17.827Z,22.61
2017-05-22T04:43:17.812Z,22.97
2017-05-22T04:44:17.823Z,23.25
2017-05-22T04:45:17.829Z,23.57
2017-05-22T04:46:17.830Z,23.94
2017-05-22T04:47:17.848Z,24.18
2017-05-22T04:48:17.826Z,24.64
2017-05-22T04:49:17.845Z,24.95
2017-05-22T04:50:17.849Z,25.33
2017-05-22T04:51:17.841Z,25.61
2017-05-22T04:52:17.863Z,25.95
2017-05-22T04:53:17.862Z,26.26
2017-05-22T04:54:17.868Z,26.62
2017-05-22T04:55:17.568Z,26.85
2017-05-22T04:56:17.571Z,27.17
2017-05-22T04:57:17.879Z,27.43
2017-05-22T04:58:17.285Z,27.7
2017-05-22T04:59:17.887Z,27.9
2017-05-22T05:00:17.592Z,28.15
2017-05-22T05:01:17.916Z,28.39
2017-05-22T05:02:17.932Z,28.64
2017-05-22T05:03:17.922Z,28.92
2017-05-22T05:04:17.630Z,29.05
2017-05-22T05:05:17.632Z,29.33
2017-05-22T05:06:17.657Z,29.58
2017-05-22T05:07:17.955Z,29.58
2017-05-22T05:08:17.663Z,29.73
2017-05-22T05:09:17.988Z,29.82
2017-05-22T05:10:17.993Z,29.98
2017-05-22T05:11:17.986Z,30.16
2017-05-22T05:12:18.005Z,30.31
2017-05-22T05:13:18.024Z,30.51
2017-05-22T05:14:18.025Z,30.72
2017-05-22T05:15:18.035Z,30.88
2017-05-22T05:16:18.043Z,31.13
2017-05-22T05:17:18.047Z,31.21
2017-05-22T05:18:18.053Z,31.41
2017-05-22T05:19:18.080Z,31.57
2017-05-22T05:20:18.071Z,31.72
2017-05-22T05:21:18.085Z,31.8
2017-05-22T05:22:18.100Z,31.92
2017-05-22T05:23:18.113Z,32.06
2017-05-22T05:24:18.121Z,32.1
2017-05-22T05:25:18.139Z,32.21
2017-05-22T05:26:18.139Z,32.21
2017-05-22T05:27:18.158Z,32.23
2017-05-22T05:28:18.160Z,32.23
2017-05-22T05:29:18.186Z,32.18
2017-05-22T05:30:18.178Z,32.18
2017-05-22T05:31:18.191Z,32.01
2017-05-22T05:32:18.208Z,32.01
2017-05-22T05:33:18.229Z,32.11
2017-05-22T05:34:18.225Z,32.06
2017-05-22T05:35:17.928Z,32.03
2017-05-22T05:36:18.255Z,32.03
2017-05-22T05:37:18.259Z,32.21
2017-05-22T05:38:18.271Z,32.18
2017-05-22T05:39:18.272Z,32.28
2017-05-22T05:40:18.288Z,32.55
2017-05-22T05:41:18.301Z,32.72
2017-05-22T05:42:18.312Z,32.75
2017-05-22T05:43:18.313Z,33.01
2017-05-22T05:44:18.341Z,33.12
2017-05-22T05:45:18.348Z,33.35
2017-05-22T05:46:18.346Z,33.65
2017-05-22T05:47:18.371Z,33.79
2017-05-22T05:48:18.374Z,33.88
2017-05-22T05:49:18.092Z,34.13
2017-05-22T05:50:18.403Z,34.3
2017-05-22T05:51:18.413Z,34.4
2017-05-22T05:52:18.427Z,34.61
2017-05-22T05:53:18.134Z,34.88
2017-05-22T05:54:18.451Z,35.09
2017-05-22T05:55:18.463Z,35.1
2017-05-22T05:56:18.486Z,35.31
2017-05-22T05:57:18.478Z,35.43
2017-05-22T05:58:18.194Z,35.56
2017-05-22T05:59:18.517Z,35.78
2017-05-22T06:00:18.516Z,35.99
2017-05-22T06:01:18.543Z,36.03
2017-05-22T06:02:18.547Z,36.25
2017-05-22T06:03:18.581Z,36.43
2017-05-22T06:04:18.575Z,36.53
2017-05-22T06:05:18.288Z,36.75
2017-05-22T06:06:18.310Z,36.85
2017-05-22T06:07:18.623Z,36.9
2017-05-22T06:08:18.647Z,36.9
2017-05-22T06:09:18.654Z,37.05
2017-05-22T06:10:18.666Z,37.03
2017-05-22T06:11:18.693Z,37.18
2017-05-22T06:12:18.394Z,37.22
2017-05-22T06:13:18.403Z,37.13
2017-05-22T06:14:18.720Z,37.05
2017-05-22T06:15:18.741Z,37.02
2017-05-22T06:16:18.776Z,37.07
2017-05-22T06:17:18.470Z,37.03
2017-05-22T06:18:18.799Z,37.06
2017-05-22T06:19:18.814Z,36.98
2017-05-22T06:20:18.830Z,36.93
2017-05-22T06:21:18.831Z,36.87
2017-05-22T06:22:18.844Z,36.69
2017-05-22T06:23:18.880Z,36.68
2017-05-22T06:24:18.890Z,36.73
2017-05-22T06:25:18.907Z,36.73
2017-05-22T06:26:18.919Z,36.69
2017-05-22T06:27:18.933Z,36.59
2017-05-22T06:28:18.658Z,36.43
2017-05-22T06:29:18.975Z,36.44
2017-05-22T06:30:18.990Z,36.23
2017-05-22T06:31:19.003Z,36.43
2017-05-22T06:32:19.010Z,36.32
2017-05-22T06:33:19.092Z,36.5
2017-05-22T06:34:19.038Z,36.57
2017-05-22T06:35:19.067Z,36.73
2017-05-22T06:36:19.087Z,36.76
2017-05-22T06:37:19.086Z,36.9
2017-05-22T06:38:18.814Z,36.88
2017-05-22T06:39:19.138Z,36.91
2017-05-22T06:40:18.841Z,36.93
2017-05-22T06:41:19.168Z,36.84
2017-05-22T06:42:18.890Z,36.76
2017-05-22T06:43:18.895Z,36.78
2017-05-22T06:44:19.228Z,36.85
2017-05-22T06:45:19.239Z,36.76
2017-05-22T06:46:18.937Z,36.69
2017-05-22T06:47:19.263Z,36.56
2017-05-22T06:48:18.973Z,36.49
2017-05-22T06:49:19.313Z,36.46
2017-05-22T06:50:19.009Z,36.56
2017-05-22T06:51:19.030Z,36.65
2017-05-22T06:52:18.746Z,36.64
2017-05-22T06:53:19.381Z,36.41
2017-05-22T06:54:19.078Z,36.12
2017-05-22T06:55:19.413Z,35.81
2017-05-22T06:56:19.410Z,35.28
2017-05-22T06:57:19.437Z,34.97
2017-05-22T06:58:19.458Z,34.64
2017-05-22T06:59:19.482Z,34.47
2017-05-22T07:00:19.178Z,34.52
2017-05-22T07:01:19.498Z,34.49
2017-05-22T07:02:19.224Z,34.54
2017-05-22T07:03:19.240Z,34.72
2017-05-22T07:04:19.560Z,34.94
2017-05-22T07:05:19.571Z,35.41
2017-05-22T07:06:19.599Z,35.7
2017-05-22T07:07:19.600Z,35.82
2017-05-22T07:08:19.639Z,35.75
2017-05-22T07:09:19.634Z,35.65
2017-05-22T07:10:19.670Z,35.62
2017-05-22T07:11:19.676Z,35.37
2017-05-22T07:12:19.702Z,35.15
2017-05-22T07:13:19.782Z,34.91
2017-05-22T07:14:19.729Z,34.81
2017-05-22T07:15:19.739Z,34.91
2017-05-22T07:16:19.772Z,35.1
2017-05-22T07:17:19.770Z,35.58
2017-05-22T07:18:19.801Z,35.84
2017-05-22T07:19:19.821Z,36.17
2017-05-22T07:20:19.822Z,36.46
2017-05-22T07:21:19.842Z,36.69
2017-05-22T07:22:19.868Z,36.99
2017-05-22T07:23:19.583Z,37.41
2017-05-22T07:24:19.595Z,37.56
2017-05-22T07:25:19.925Z,37.79
2017-05-22T07:26:19.941Z,37.84
2017-05-22T07:27:19.969Z,37.91
2017-05-22T07:28:19.674Z,37.86
2017-05-22T07:29:19.987Z,37.7
2017-05-22T07:30:20.010Z,37.5
2017-05-22T07:31:20.034Z,37.25
2017-05-22T07:32:20.040Z,36.64
2017-05-22T07:33:20.066Z,36.23
2017-05-22T07:34:20.076Z,36.15
2017-05-22T07:35:20.100Z,35.94
2017-05-22T07:36:20.118Z,35.7
2017-05-22T07:37:20.135Z,35.62
2017-05-22T07:38:20.154Z,35.63
2017-05-22T07:39:20.174Z,35.48
2017-05-22T07:40:20.185Z,35.45
2017-05-22T07:41:20.254Z,35.41
2017-05-22T07:42:20.223Z,35.26
2017-05-22T07:43:20.239Z,35.04
2017-05-22T07:44:19.957Z,34.73
2017-05-22T07:45:19.972Z,34.37
2017-05-22T07:46:20.296Z,33.98
2017-05-22T07:47:20.319Z,33.87
2017-05-22T07:48:20.326Z,33.94
2017-05-22T07:49:20.352Z,34.17
2017-05-22T07:50:20.376Z,34.47
2017-05-22T07:51:20.375Z,34.85
2017-05-22T07:52:20.407Z,35.18
2017-05-22T07:53:20.413Z,35.41
2017-05-22T07:54:20.440Z,35.62
2017-05-22T07:55:20.152Z,35.66
2017-05-22T07:56:20.462Z,35.59
2017-05-22T07:57:20.490Z,35.56
2017-05-22T07:58:20.510Z,35.41
2017-05-22T07:59:20.230Z,35.11
2017-05-22T08:00:20.554Z,34.82
2017-05-22T08:01:20.555Z,34.47
2017-05-22T08:02:20.581Z,34.35
2017-05-22T08:03:20.589Z,34.27
2017-05-22T08:04:20.610Z,34.46
2017-05-22T08:05:20.620Z,34.7
2017-05-22T08:06:20.646Z,35.07
2017-05-22T08:07:20.656Z,35.53
2017-05-22T08:08:20.688Z,35.77
2017-05-22T08:09:20.709Z,36
2017-05-22T08:10:20.737Z,36.08
2017-05-22T08:11:20.736Z,36.15
2017-05-22T08:12:20.743Z,35.96
2017-05-22T08:13:20.773Z,35.82
2017-05-22T08:14:20.790Z,35.63
2017-05-22T08:15:20.815Z,35.56
2017-05-22T08:16:20.825Z,35.43
2017-05-22T08:17:20.545Z,35.11
2017-05-22T08:18:20.857Z,35.09
2017-05-22T08:19:20.879Z,34.73
2017-05-22T08:20:20.882Z,34.49
2017-05-22T08:21:20.904Z,34.25
2017-05-22T08:22:20.928Z,34.03
2017-05-22T08:23:20.939Z,33.84
2017-05-22T08:24:21.036Z,33.84
2017-05-22T08:25:20.975Z,33.76
2017-05-22T08:26:20.989Z,33.82
2017-05-22T08:27:21.002Z,33.75
2017-05-22T08:28:21.035Z,33.49
2017-05-22T08:29:21.030Z,33.34
2017-05-22T08:30:21.056Z,33.15
2017-05-22T08:31:21.075Z,32.99
2017-05-22T08:32:21.090Z,32.75
2017-05-22T08:33:21.098Z,32.48
2017-05-22T08:34:21.122Z,31.86
2017-05-22T08:35:21.122Z,31.06
2017-05-22T08:36:20.835Z,30.08
2017-05-22T08:37:21.145Z,29
2017-05-22T08:38:21.162Z,28.27
2017-05-22T08:39:21.187Z,27.72
2017-05-22T08:40:21.190Z,27.13
2017-05-22T08:41:21.207Z,26.89
2017-05-22T08:42:21.212Z,26.82
2017-05-22T08:43:21.225Z,26.65
2017-05-22T08:44:21.247Z,26.28
2017-05-22T08:45:21.256Z,25.99
2017-05-22T08:46:21.266Z,25.77
2017-05-22T08:47:21.273Z,25.58
2017-05-22T08:48:21.306Z,25.38
2017-05-22T08:49:21.283Z,25.06
2017-05-22T08:50:21.288Z,24.76
2017-05-22T08:51:21.306Z,24.39
2017-05-22T08:52:21.310Z,24.22
2017-05-22T08:53:21.329Z,24.1
2017-05-22T08:54:21.348Z,24.12
2017-05-22T08:55:21.338Z,24.09
2017-05-22T08:56:21.350Z,24.1
2017-05-22T08:57:21.376Z,24.24
2017-05-22T08:58:21.370Z,24.16
2017-05-22T08:59:21.368Z,24.1
2017-05-22T09:00:21.376Z,24.08
2017-05-22T09:01:21.391Z,24.03
2017-05-22T09:02:21.406Z,23.88
2017-05-22T09:03:21.406Z,23.87
2017-05-22T09:04:21.420Z,23.78
2017-05-22T09:05:21.411Z,23.69
2017-05-22T09:06:21.779Z,23.53
2017-05-22T09:07:21.425Z,23.51
2017-05-22T09:08:21.439Z,23.46
2017-05-22T09:09:21.448Z,23.32
2017-05-22T09:10:21.441Z,23.28
2017-05-22T09:11:21.461Z,23.27
2017-05-22T09:12:21.451Z,23.31
2017-05-22T09:13:21.450Z,23.22
2017-05-22T09:14:21.450Z,23.12
2017-05-22T09:15:21.163Z,23.05
2017-05-22T09:16:21.465Z,23.04
2017-05-22T09:17:21.464Z,23.01
2017-05-22T09:18:21.484Z,22.98
2017-05-22T09:19:21.481Z,23.05
2017-05-22T09:20:21.488Z,23.16
2017-05-22T09:21:21.483Z,23.19
2017-05-22T09:23:21.481Z,23.28
2017-05-22T09:24:21.499Z,23.38
2017-05-22T09:25:21.493Z,23.4
2017-05-22T09:26:21.492Z,23.47
2017-05-22T09:27:21.567Z,23.66
2017-05-22T09:28:21.504Z,23.79
2017-05-22T09:29:21.503Z,23.87
2017-05-22T09:30:21.511Z,23.94
2017-05-22T09:31:21.507Z,23.94
2017-05-22T09:32:21.529Z,23.98
2017-05-22T09:33:21.524Z,24.06
2017-05-22T09:34:21.531Z,24.12
2017-05-22T09:35:21.527Z,24.1
2017-05-22T09:36:21.523Z,24.09
2017-05-22T09:37:21.223Z,24.24
2017-05-22T09:38:21.534Z,24.2
2017-05-22T09:39:21.552Z,24.31
2017-05-22T09:40:21.583Z,24.25
2017-05-22T09:41:21.551Z,24.3
2017-05-22T09:42:21.553Z,24.28
2017-05-22T09:43:21.554Z,24.2
2017-05-22T09:44:21.564Z,24.21
2017-05-22T09:45:21.243Z,24.1
2017-05-22T09:46:21.554Z,24.08
2017-05-22T09:47:21.552Z,24.08
2017-05-22T09:48:21.574Z,23.9
2017-05-22T09:49:21.587Z,23.83
2017-05-22T09:50:21.573Z,23.75
2017-05-22T09:51:21.578Z,23.72
2017-05-22T09:52:21.280Z,23.54
2017-05-22T09:53:21.576Z,23.48
2017-05-22T09:54:21.310Z,23.54
2017-05-22T09:55:21.282Z,23.55
2017-05-22T09:56:21.298Z,23.58
2017-05-22T09:57:21.586Z,23.6
2017-05-22T09:58:21.300Z,23.63
2017-05-22T09:59:21.610Z,23.69
2017-05-22T10:00:21.603Z,23.68
2017-05-22T10:01:21.306Z,23.66
2017-05-22T10:02:21.612Z,23.84
2017-05-22T10:03:21.623Z,23.8
2017-05-22T10:04:21.626Z,23.94
2017-05-22T10:05:21.627Z,23.95
2017-05-22T10:06:21.642Z,24.03
2017-05-22T10:07:21.330Z,23.94
2017-05-22T10:08:21.630Z,24
2017-05-22T10:09:21.648Z,23.87
2017-05-22T10:10:21.630Z,23.9
2017-05-22T10:11:21.647Z,24.05
2017-05-22T10:12:21.644Z,24.1
2017-05-22T10:13:21.645Z,24.21
2017-05-22T10:14:21.654Z,24.31
2017-05-22T10:15:21.657Z,24.3
2017-05-22T10:16:21.651Z,24.2
2017-05-22T10:17:21.667Z,24.24
2017-05-22T10:18:21.658Z,24.37
2017-05-22T10:19:21.674Z,24.5
2017-05-22T10:20:21.675Z,24.67
2017-05-22T10:21:21.686Z,24.76
2017-05-22T10:22:21.670Z,24.81
2017-05-22T10:23:21.685Z,24.9
2017-05-22T10:24:21.693Z,24.88
2017-05-22T10:25:21.383Z,24.85
2017-05-22T10:26:21.693Z,24.93
2017-05-22T10:27:21.688Z,24.95
2017-05-22T10:28:21.705Z,25.02
2017-05-22T10:29:21.720Z,24.98
2017-05-22T10:30:21.407Z,24.98
2017-05-22T10:31:21.723Z,24.98
2017-05-22T10:32:21.422Z,25.02
2017-05-22T10:33:21.734Z,24.87
2017-05-22T10:34:21.722Z,24.84
2017-05-22T10:35:21.933Z,24.77
2017-05-22T10:36:21.747Z,24.71
2017-05-22T10:37:21.726Z,24.61
2017-05-22T10:38:21.133Z,24.52
2017-05-22T10:39:21.752Z,24.46
2017-05-22T10:40:21.755Z,24.31
2017-05-22T10:41:21.764Z,24.2
2017-05-22T10:42:21.743Z,24.16
2017-05-22T10:43:21.756Z,23.95
2017-05-22T10:44:21.818Z,23.91
2017-05-22T10:45:21.754Z,23.93
2017-05-22T10:46:21.759Z,23.91
2017-05-22T10:47:21.775Z,23.97
2017-05-22T10:48:21.772Z,23.87
2017-05-22T10:49:21.769Z,23.83
2017-05-22T10:50:21.769Z,23.8
2017-05-22T10:51:21.779Z,23.73
2017-05-22T10:52:21.784Z,23.66
2017-05-22T10:53:21.788Z,23.51
2017-05-22T10:54:21.788Z,23.57
2017-05-22T10:55:21.789Z,23.57
2017-05-22T10:56:21.786Z,23.58
2017-05-22T10:57:21.496Z,23.51
2017-05-22T10:58:21.802Z,23.33
2017-05-22T10:59:21.498Z,23.17
2017-05-22T11:00:21.803Z,23.09
2017-05-22T11:01:21.810Z,22.86
2017-05-22T11:02:21.817Z,22.82
2017-05-22T11:03:21.805Z,22.77
2017-05-22T11:04:21.808Z,22.9
2017-05-22T11:05:21.817Z,22.85
2017-05-22T11:06:21.820Z,22.83
2017-05-22T11:07:21.217Z,22.91
2017-05-22T11:08:21.838Z,22.88
2017-05-22T11:09:21.826Z,22.88
2017-05-22T11:10:21.824Z,22.85
2017-05-22T11:11:21.820Z,22.9
2017-05-22T11:12:21.515Z,22.94
2017-05-22T11:13:21.834Z,22.9
2017-05-22T11:14:21.537Z,23.02
2017-05-22T11:15:21.844Z,23.04
2017-05-22T11:16:21.836Z,23.09
2017-05-22T11:17:21.846Z,23.17
2017-05-22T11:18:21.842Z,23.22
2017-05-22T11:19:21.831Z,23.38
2017-05-22T11:20:21.837Z,23.5
2017-05-22T11:21:22.211Z,23.5
2017-05-22T11:22:21.845Z,23.66
2017-05-22T11:23:21.854Z,23.73
2017-05-22T11:24:21.852Z,23.7
2017-05-22T11:25:21.862Z,23.69
2017-05-22T11:26:21.550Z,23.65
2017-05-22T11:27:21.861Z,23.6
2017-05-22T11:28:21.863Z,23.55
2017-05-22T11:29:21.916Z,23.63
2017-05-22T11:30:21.872Z,23.6
2017-05-22T11:31:21.854Z,23.55
2017-05-22T11:32:21.858Z,23.58
2017-05-22T11:33:21.625Z,23.63
2017-05-22T11:34:21.869Z,23.68
2017-05-22T11:35:21.882Z,23.65
2017-05-22T11:36:21.876Z,23.79
2017-05-22T11:37:21.872Z,23.83
2017-05-22T11:38:21.877Z,23.83
2017-05-22T11:39:21.883Z,23.98
2017-05-22T11:40:21.891Z,24.06
2017-05-22T11:41:21.887Z,24.03
2017-05-22T11:42:21.892Z,24.08
2017-05-22T11:43:21.882Z,24.1
2017-05-22T11:44:21.895Z,24.13
2017-05-22T11:45:21.893Z,24.15
2017-05-22T11:46:21.890Z,24.1
2017-05-22T11:47:21.898Z,24.15
2017-05-22T11:48:21.287Z,24.2
2017-05-22T11:49:21.901Z,24.09
2017-05-22T11:50:21.911Z,24.12
2017-05-22T11:51:21.909Z,23.94
2017-05-22T11:52:21.918Z,23.84
2017-05-22T11:53:21.912Z,23.72
2017-05-22T11:54:21.915Z,23.69
2017-05-22T11:55:21.920Z,23.58
2017-05-22T11:56:21.928Z,23.55
2017-05-22T11:57:21.917Z,23.55
2017-05-22T11:58:21.928Z,23.46
2017-05-22T11:59:21.921Z,23.32
2017-05-22T12:00:21.924Z,23.25
2017-05-22T12:01:22.191Z,23.25
2017-05-22T12:02:21.929Z,23.22
2017-05-22T12:03:21.939Z,23.33
2017-05-22T12:04:21.945Z,23.38
2017-05-22T12:05:21.938Z,23.47
2017-05-22T12:06:21.939Z,23.47
2017-05-22T12:07:21.632Z,23.58
2017-05-22T12:08:21.943Z,23.66
2017-05-22T12:09:21.956Z,23.72
2017-05-22T12:10:21.940Z,23.78
2017-05-22T12:11:21.947Z,23.91
2017-05-22T12:12:21.942Z,23.98
2017-05-22T12:13:21.347Z,23.95
2017-05-22T12:14:21.337Z,23.95
2017-05-22T12:15:21.648Z,23.9
2017-05-22T12:16:21.946Z,23.85
2017-05-22T12:17:21.971Z,23.88
2017-05-22T12:18:21.971Z,23.9
2017-05-22T12:19:21.967Z,23.83
2017-05-22T12:20:21.952Z,23.79
2017-05-22T12:21:21.363Z,23.68
2017-05-22T12:22:21.668Z,23.55
2017-05-22T12:23:21.965Z,23.54
2017-05-22T12:24:21.977Z,23.58
2017-05-22T12:25:21.982Z,23.54
2017-05-22T12:26:21.976Z,23.58
2017-05-22T12:27:21.974Z,23.57
2017-05-22T12:28:21.381Z,23.55
2017-05-22T12:29:22.046Z,23.51
2017-05-22T12:30:21.998Z,23.48
2017-05-22T12:31:21.989Z,23.51
2017-05-22T12:32:21.980Z,23.4
2017-05-22T12:33:21.985Z,23.32
2017-05-22T12:34:21.996Z,23.28
2017-05-22T12:35:21.992Z,23.15
2017-05-22T12:36:21.990Z,23.05
2017-05-22T12:37:21.997Z,23.01
2017-05-22T12:38:22.009Z,22.95
2017-05-22T12:39:22.006Z,22.98
2017-05-22T12:40:22.010Z,22.9
2017-05-22T12:41:21.753Z,22.95
2017-05-22T12:42:21.707Z,22.92
2017-05-22T12:43:22.010Z,22.95
2017-05-22T12:44:22.026Z,22.94
2017-05-22T12:45:22.013Z,23.09
2017-05-22T12:46:21.711Z,23.01
2017-05-22T12:47:22.013Z,23.04
2017-05-22T12:48:22.015Z,22.98
2017-05-22T12:49:22.024Z,23.05
2017-05-22T12:50:22.007Z,23.02
2017-05-22T12:51:22.020Z,23.02
2017-05-22T12:52:21.721Z,23.01
2017-05-22T12:53:22.021Z,23.01
2017-05-22T12:54:22.023Z,23.02
2017-05-22T12:55:22.049Z,23.05
2017-05-22T12:56:22.027Z,23.02